Time;durP1;ratioP1;P1;durP2;ratioP2;P2;SDS_P1;SDS_P2;PMS_P1;PMS_P2;Temp;Humidity;BMP_temperature;BMP_pressure;BME280_temperature;BME280_humidity;BME280_pressure;Samples;Min_cycle;Max_cycle;Signal;HPM_P1;HPM_P2
2021/08/10 00:01:32;;;;;;;1.90;1.73;;;13.50;99.90;;;;;;6095367;23;20596;-64
2021/08/10 00:03:57;;;;;;;2.00;1.90;;;13.50;99.90;;;;;;6095364;23;20173;-64
2021/08/10 00:06:23;;;;;;;1.93;1.83;;;13.40;99.90;;;;;;6095089;23;20175;-64
2021/08/10 00:08:48;;;;;;;2.10;2.00;;;13.40;99.90;;;;;;6095321;23;20162;-64
2021/08/10 00:11:14;;;;;;;1.80;1.70;;;13.40;99.90;;;;;;6095176;23;20606;-64
2021/08/10 00:13:40;;;;;;;3.30;2.20;;;13.30;99.90;;;;;;6095233;23;20590;-65
2021/08/10 00:16:05;;;;;;;2.40;2.00;;;13.40;99.90;;;;;;6095075;23;20598;-64
2021/08/10 00:18:32;;;;;;;4.33;2.37;;;13.20;99.90;;;;;;6095326;23;20170;-63
2021/08/10 00:20:57;;;;;;;1.70;1.60;;;13.30;99.90;;;;;;6095254;23;20178;-64
2021/08/10 00:23:23;;;;;;;2.00;1.90;;;13.30;99.90;;;;;;6095270;23;20371;-64
2021/08/10 00:25:49;;;;;;;3.63;2.40;;;13.20;99.90;;;;;;6095199;23;20173;-64
2021/08/10 00:28:15;;;;;;;2.03;1.90;;;13.20;99.90;;;;;;6095067;23;20166;-64
2021/08/10 00:30:42;;;;;;;3.00;2.80;;;13.20;99.90;;;;;;6095358;23;20201;-64
2021/08/10 00:33:08;;;;;;;3.00;2.20;;;13.20;99.90;;;;;;6095603;23;20379;-64
2021/08/10 00:35:34;;;;;;;2.60;2.40;;;13.10;99.90;;;;;;6095498;23;20624;-64
2021/08/10 00:38:00;;;;;;;2.43;2.23;;;13.10;99.90;;;;;;6094939;23;20849;-64
2021/08/10 00:40:25;;;;;;;2.83;2.47;;;13.10;99.90;;;;;;6095280;23;20186;-64
2021/08/10 00:42:51;;;;;;;6.50;2.10;;;13.10;99.90;;;;;;6095137;23;20586;-63
2021/08/10 00:45:17;;;;;;;1.83;1.73;;;13.20;99.90;;;;;;6095304;23;20468;-64
2021/08/10 00:47:42;;;;;;;2.23;2.03;;;13.20;99.90;;;;;;6094829;23;20202;-64
2021/08/10 00:50:09;;;;;;;2.57;2.37;;;13.10;99.90;;;;;;6095219;23;20178;-63
2021/08/10 00:52:35;;;;;;;2.40;2.20;;;13.10;99.90;;;;;;6095237;23;20232;-64
2021/08/10 00:55:04;;;;;;;2.40;2.20;;;13.10;99.90;;;;;;6095244;23;20850;-63
2021/08/10 00:57:29;;;;;;;2.37;2.27;;;13.00;99.90;;;;;;6094671;23;20154;-64
2021/08/10 00:59:55;;;;;;;2.23;2.10;;;13.00;99.90;;;;;;6095000;23;20935;-64
2021/08/10 01:02:21;;;;;;;2.90;2.70;;;13.00;99.90;;;;;;6095306;23;20222;-63
2021/08/10 01:04:46;;;;;;;2.50;2.13;;;13.00;99.90;;;;;;6095255;23;20396;-64
2021/08/10 01:07:21;;;;;;;2.80;2.60;;;12.90;99.90;;;;;;6095123;23;20150;-64
2021/08/10 01:10:14;;;;;;;2.20;2.00;;;12.90;99.90;;;;;;6096657;23;20516;-63
2021/08/10 01:12:54;;;;;;;2.53;2.33;;;12.90;99.90;;;;;;6097203;23;20367;-63
2021/08/10 01:15:24;;;;;;;2.37;2.17;;;12.90;99.90;;;;;;6097223;23;20692;-64
2021/08/10 01:18:05;;;;;;;2.23;2.13;;;12.90;99.90;;;;;;6096463;23;20748;-64
2021/08/10 01:20:46;;;;;;;2.73;1.97;;;13.00;99.90;;;;;;6096821;23;20442;-64
2021/08/10 01:23:14;;;;;;;2.23;2.13;;;13.00;99.90;;;;;;6096799;23;20355;-64
2021/08/10 01:26:00;;;;;;;2.60;2.20;;;13.10;99.90;;;;;;6096633;23;20755;-64
2021/08/10 01:28:49;;;;;;;1.80;1.70;;;13.10;99.90;;;;;;6096656;23;20921;-63
2021/08/10 01:31:23;;;;;;;2.83;1.97;;;13.10;99.90;;;;;;6097063;23;20438;-63
2021/08/10 01:33:52;;;;;;;2.70;2.50;;;13.00;99.90;;;;;;6096625;23;20370;-64
2021/08/10 01:36:21;;;;;;;2.13;2.03;;;13.10;99.90;;;;;;6096302;23;20398;-64
2021/08/10 01:38:50;;;;;;;2.27;2.17;;;13.10;99.90;;;;;;6096517;23;20964;-64
2021/08/10 01:41:18;;;;;;;4.23;4.00;;;13.10;99.90;;;;;;6096517;23;20421;-64
2021/08/10 01:43:45;;;;;;;2.83;2.50;;;13.10;99.90;;;;;;6096741;23;20370;-66
2021/08/10 01:46:12;;;;;;;2.97;2.77;;;13.20;99.90;;;;;;6096243;23;20371;-64
2021/08/10 01:48:40;;;;;;;3.47;2.63;;;13.20;99.90;;;;;;6096438;23;20393;-64
2021/08/10 01:51:06;;;;;;;2.60;2.40;;;13.20;99.90;;;;;;6096873;23;20693;-63
2021/08/10 01:53:33;;;;;;;2.73;2.53;;;13.30;99.90;;;;;;6096391;23;20375;-64
2021/08/10 01:55:59;;;;;;;2.43;2.30;;;13.30;99.90;;;;;;6096033;23;20838;-64
2021/08/10 01:58:29;;;;;;;2.47;2.23;;;13.40;99.90;;;;;;6096376;23;20458;-63
2021/08/10 02:00:57;;;;;;;4.40;2.60;;;13.40;99.90;;;;;;6096273;23;20893;-64
2021/08/10 02:03:24;;;;;;;3.17;2.97;;;13.40;99.90;;;;;;6096254;23;20371;-63
2021/08/10 02:05:50;;;;;;;2.63;2.43;;;13.50;99.90;;;;;;6096278;23;20382;-63
2021/08/10 02:08:17;;;;;;;8.93;2.93;;;13.60;99.90;;;;;;6095915;23;20397;-64
2021/08/10 02:10:46;;;;;;;4.43;3.30;;;13.60;99.90;;;;;;6096162;23;20463;-63
2021/08/10 02:13:13;;;;;;;5.07;2.77;;;13.60;99.90;;;;;;6096237;23;20386;-64
2021/08/10 02:15:40;;;;;;;2.93;2.73;;;13.60;99.90;;;;;;6096288;23;20462;-63
2021/08/10 02:18:06;;;;;;;2.70;2.50;;;13.70;99.90;;;;;;6095805;23;20394;-64
2021/08/10 02:20:33;;;;;;;2.80;2.40;;;13.60;99.90;;;;;;6096081;23;20414;-64
2021/08/10 02:22:59;;;;;;;4.57;2.60;;;13.60;99.90;;;;;;6096023;23;20143;-63
2021/08/10 02:25:26;;;;;;;5.17;3.20;;;13.60;99.90;;;;;;6096207;23;20374;-64
2021/08/10 02:27:55;;;;;;;2.53;2.33;;;13.70;99.90;;;;;;6095703;23;20445;-63
2021/08/10 02:30:26;;;;;;;3.17;2.87;;;13.70;99.90;;;;;;6096201;23;20750;-64
2021/08/10 02:32:53;;;;;;;3.33;3.03;;;13.70;99.90;;;;;;6096085;23;20391;-65
2021/08/10 02:35:21;;;;;;;3.17;2.87;;;13.80;99.90;;;;;;6096015;23;20371;-64
2021/08/10 02:37:48;;;;;;;4.37;3.43;;;13.90;99.90;;;;;;6095634;23;20409;-64
2021/08/10 02:40:17;;;;;;;4.20;3.90;;;13.90;99.90;;;;;;6095833;23;20465;-65
2021/08/10 02:42:53;;;;;;;5.93;2.67;;;13.90;99.90;;;;;;6096267;23;20707;-64
2021/08/10 02:45:19;;;;;;;4.33;4.03;;;13.80;99.90;;;;;;6096325;23;20716;-64
2021/08/10 02:47:52;;;;;;;2.80;2.63;;;13.80;99.90;;;;;;6095474;23;20395;-63
2021/08/10 02:50:19;;;;;;;3.13;2.87;;;13.90;99.90;;;;;;6096023;23;20359;-64
2021/08/10 02:52:44;;;;;;;3.53;3.23;;;13.90;99.90;;;;;;6095829;23;20375;-64
2021/08/10 02:55:10;;;;;;;3.53;3.20;;;13.90;99.90;;;;;;6095868;23;20426;-64
2021/08/10 02:57:45;;;;;;;3.33;3.03;;;13.80;99.90;;;;;;6095637;23;20147;-64
2021/08/10 03:00:11;;;;;;;3.20;3.00;;;13.90;99.90;;;;;;6095623;23;20826;-64
2021/08/10 03:02:42;;;;;;;4.00;2.90;;;13.90;99.90;;;;;;6095993;23;20378;-64
2021/08/10 03:05:20;;;;;;;4.03;2.50;;;13.90;99.90;;;;;;6095868;23;20375;-64
2021/08/10 03:07:51;;;;;;;3.37;3.07;;;13.90;99.90;;;;;;6095359;23;20375;-64
2021/08/10 03:10:18;;;;;;;3.30;2.70;;;13.90;99.90;;;;;;6095632;23;20390;-63
2021/08/10 03:12:49;;;;;;;3.80;2.83;;;13.90;99.90;;;;;;6095608;23;20761;-64
2021/08/10 03:15:17;;;;;;;3.13;2.93;;;13.90;99.90;;;;;;6095737;23;20371;-64
2021/08/10 03:17:44;;;;;;;3.53;3.30;;;13.90;99.90;;;;;;6095244;23;20402;-65
2021/08/10 03:20:11;;;;;;;4.20;3.10;;;13.90;99.90;;;;;;6095795;23;20756;-64
2021/08/10 03:22:41;;;;;;;3.87;2.90;;;14.00;99.90;;;;;;6096341;23;20371;-64
2021/08/10 03:25:08;;;;;;;2.77;2.57;;;14.00;99.90;;;;;;6095933;23;20370;-64
2021/08/10 03:27:35;;;;;;;2.93;2.73;;;14.00;99.90;;;;;;6095356;23;20964;-64
2021/08/10 03:30:05;;;;;;;6.30;3.77;;;14.00;99.90;;;;;;6095320;23;20417;-64
2021/08/10 03:32:33;;;;;;;5.17;3.27;;;14.00;99.90;;;;;;6095517;23;20856;-64
2021/08/10 03:34:59;;;;;;;8.20;4.17;;;14.00;99.90;;;;;;6096245;23;20449;-64
2021/08/10 03:37:25;;;;;;;2.73;2.50;;;14.00;99.90;;;;;;6095373;23;20378;-64
2021/08/10 03:39:53;;;;;;;4.13;3.67;;;14.00;99.90;;;;;;6095603;23;20419;-64
2021/08/10 03:42:19;;;;;;;3.90;3.60;;;14.00;99.90;;;;;;6095562;23;20387;-64
2021/08/10 03:44:45;;;;;;;3.83;3.50;;;13.90;99.90;;;;;;6095500;23;20375;-64
2021/08/10 03:47:12;;;;;;;3.83;3.20;;;13.90;99.90;;;;;;6095440;23;20157;-64
2021/08/10 03:49:38;;;;;;;6.97;5.10;;;14.00;99.90;;;;;;6095727;23;20217;-64
2021/08/10 03:52:05;;;;;;;2.97;2.67;;;14.00;99.90;;;;;;6095436;23;20379;-65
2021/08/10 03:54:31;;;;;;;4.53;3.70;;;14.00;99.90;;;;;;6095312;23;20378;-64
2021/08/10 03:56:58;;;;;;;2.83;2.63;;;14.00;99.90;;;;;;6095035;23;20825;-64
2021/08/10 03:59:24;;;;;;;3.73;2.97;;;14.00;99.90;;;;;;6095556;23;20205;-64
2021/08/10 04:01:53;;;;;;;3.17;2.97;;;14.00;99.90;;;;;;6095479;23;20489;-64
2021/08/10 04:04:19;;;;;;;6.80;4.00;;;14.00;99.90;;;;;;6095612;23;20389;-65
2021/08/10 04:06:45;;;;;;;4.23;3.63;;;14.00;99.90;;;;;;6094975;23;20371;-64
2021/08/10 04:09:11;;;;;;;5.13;3.17;;;13.90;99.90;;;;;;6095258;23;20397;-64
2021/08/10 04:11:40;;;;;;;3.40;3.20;;;13.90;99.90;;;;;;6095659;23;20174;-65
2021/08/10 04:14:07;;;;;;;6.20;3.70;;;13.90;99.90;;;;;;6095262;23;20378;-64
2021/08/10 04:16:50;;;;;;;3.33;3.13;;;14.00;99.90;;;;;;6095414;23;20385;-64
2021/08/10 04:19:20;;;;;;;4.17;3.30;;;13.90;99.90;;;;;;6095313;23;20383;-64
2021/08/10 04:21:45;;;;;;;4.23;3.83;;;13.80;99.90;;;;;;6095291;23;20386;-63
2021/08/10 04:24:11;;;;;;;3.13;2.93;;;13.90;99.90;;;;;;6095302;23;20374;-65
2021/08/10 04:26:37;;;;;;;3.60;3.40;;;13.80;99.90;;;;;;6095058;23;20681;-64
2021/08/10 04:29:03;;;;;;;4.00;3.60;;;13.80;99.90;;;;;;6095360;23;20182;-64
2021/08/10 04:31:29;;;;;;;3.47;3.17;;;13.70;99.90;;;;;;6095313;23;20155;-64
2021/08/10 04:33:55;;;;;;;4.03;3.63;;;13.70;99.90;;;;;;6095160;23;20367;-63
2021/08/10 04:36:20;;;;;;;4.30;3.83;;;13.60;99.90;;;;;;6095228;23;20155;-64
2021/08/10 04:38:46;;;;;;;6.43;3.00;;;13.60;99.90;;;;;;6095248;23;20174;-64
2021/08/10 04:41:12;;;;;;;4.27;3.50;;;13.60;99.90;;;;;;6095485;23;20689;-64
2021/08/10 04:43:37;;;;;;;4.80;4.27;;;13.60;99.90;;;;;;6096727;23;20147;-63
2021/08/10 04:46:03;;;;;;;3.97;3.60;;;13.60;99.90;;;;;;6096903;23;20645;-63
2021/08/10 04:48:28;;;;;;;5.27;2.67;;;13.60;99.90;;;;;;6097060;23;20167;-64
2021/08/10 04:50:54;;;;;;;2.90;2.50;;;13.60;99.90;;;;;;6097069;23;20155;-65
2021/08/10 04:53:19;;;;;;;4.13;2.90;;;13.50;99.90;;;;;;6097051;23;20194;-64
2021/08/10 04:55:45;;;;;;;3.50;3.03;;;13.50;99.90;;;;;;6097105;23;20157;-64
2021/08/10 04:58:11;;;;;;;3.30;3.00;;;13.50;99.90;;;;;;6096725;23;20245;-63
2021/08/10 05:00:37;;;;;;;4.43;2.80;;;13.50;99.90;;;;;;6096998;23;20449;-64
2021/08/10 05:03:02;;;;;;;3.80;3.50;;;13.60;99.90;;;;;;6096962;23;20198;-65
2021/08/10 05:05:28;;;;;;;3.53;3.23;;;13.60;99.90;;;;;;6096910;23;20493;-63
2021/08/10 05:07:53;;;;;;;3.43;3.10;;;13.60;99.90;;;;;;6096543;23;20153;-64
2021/08/10 05:10:19;;;;;;;4.80;2.97;;;13.70;99.90;;;;;;6096710;23;20707;-64
2021/08/10 05:12:44;;;;;;;3.43;3.13;;;13.70;99.90;;;;;;6096878;23;20462;-65
2021/08/10 05:15:10;;;;;;;3.50;2.90;;;13.70;99.90;;;;;;6097253;23;20147;-64
2021/08/10 05:17:36;;;;;;;4.23;3.03;;;13.70;99.90;;;;;;6096812;23;20178;-64
2021/08/10 05:20:02;;;;;;;3.20;2.97;;;13.80;99.90;;;;;;6096959;23;20174;-64
2021/08/10 05:22:27;;;;;;;3.10;2.90;;;13.80;99.90;;;;;;6096939;23;20147;-64
2021/08/10 05:24:53;;;;;;;3.10;2.90;;;13.80;99.90;;;;;;6096728;23;20371;-64
2021/08/10 05:27:18;;;;;;;4.00;3.60;;;13.90;99.90;;;;;;6096421;23;20230;-63
2021/08/10 05:29:44;;;;;;;4.17;3.23;;;13.90;99.90;;;;;;6096583;23;20174;-64
2021/08/10 05:32:10;;;;;;;3.00;2.70;;;14.00;99.90;;;;;;6096722;23;20162;-64
2021/08/10 05:34:35;;;;;;;3.00;2.67;;;14.00;99.90;;;;;;6096531;23;20154;-64
2021/08/10 05:37:01;;;;;;;4.47;3.73;;;14.10;99.90;;;;;;6096331;23;20151;-64
2021/08/10 05:39:27;;;;;;;3.40;3.17;;;14.10;99.90;;;;;;6096544;23;20166;-64
2021/08/10 05:41:52;;;;;;;3.17;2.97;;;14.10;99.90;;;;;;6096629;23;20575;-64
2021/08/10 05:44:18;;;;;;;6.47;3.27;;;14.10;99.90;;;;;;6096525;23;20202;-64
2021/08/10 05:46:43;;;;;;;3.40;3.10;;;14.20;99.90;;;;;;6096277;23;20205;-63
2021/08/10 05:49:09;;;;;;;3.17;2.80;;;14.20;99.90;;;;;;6096367;23;20212;-64
2021/08/10 05:51:36;;;;;;;3.97;3.20;;;14.30;99.90;;;;;;6096640;23;20158;-64
2021/08/10 05:54:02;;;;;;;5.10;3.57;;;14.30;99.90;;;;;;6096361;23;20497;-64
2021/08/10 05:56:27;;;;;;;3.50;3.30;;;14.40;99.90;;;;;;6096162;23;20378;-64
2021/08/10 05:58:53;;;;;;;3.20;2.97;;;14.40;99.90;;;;;;6096366;23;20166;-64
2021/08/10 06:01:18;;;;;;;3.63;3.33;;;14.40;99.90;;;;;;6097004;23;20175;-64
2021/08/10 06:03:44;;;;;;;3.37;2.97;;;14.50;99.90;;;;;;6096257;23;20166;-64
2021/08/10 06:06:10;;;;;;;3.30;3.10;;;14.50;99.90;;;;;;6096067;23;20150;-64
2021/08/10 06:08:35;;;;;;;4.03;2.90;;;14.60;99.90;;;;;;6096234;23;20171;-64
2021/08/10 06:11:01;;;;;;;5.20;3.20;;;14.70;99.90;;;;;;6096437;23;20202;-64
2021/08/10 06:13:27;;;;;;;3.90;3.60;;;14.70;99.90;;;;;;6096231;23;20178;-63
2021/08/10 06:15:52;;;;;;;4.40;3.47;;;14.70;99.90;;;;;;6096198;23;20151;-64
2021/08/10 06:18:18;;;;;;;7.13;3.60;;;14.80;99.90;;;;;;6096082;23;20175;-64
2021/08/10 06:20:44;;;;;;;4.03;3.73;;;14.90;99.90;;;;;;6096236;23;20573;-63
2021/08/10 06:23:09;;;;;;;5.80;3.47;;;15.00;99.90;;;;;;6096227;23;20154;-64
2021/08/10 06:25:35;;;;;;;4.17;3.23;;;15.10;99.90;;;;;;6096104;23;20234;-64
2021/08/10 06:28:01;;;;;;;3.00;2.80;;;15.10;99.90;;;;;;6095811;23;20143;-64
2021/08/10 06:30:26;;;;;;;3.17;2.97;;;15.30;99.90;;;;;;6096196;23;20155;-64
2021/08/10 06:32:52;;;;;;;3.87;3.07;;;15.40;99.90;;;;;;6095907;23;20178;-64
2021/08/10 06:35:17;;;;;;;3.77;3.37;;;15.50;99.90;;;;;;6096089;23;20461;-64
2021/08/10 06:37:43;;;;;;;3.37;3.17;;;15.60;99.90;;;;;;6095724;23;20158;-64
2021/08/10 06:40:09;;;;;;;5.20;2.90;;;15.60;99.90;;;;;;6095997;23;20614;-64
2021/08/10 06:42:35;;;;;;;3.43;3.13;;;15.60;99.90;;;;;;6096069;23;20230;-64
2021/08/10 06:45:00;;;;;;;3.37;3.07;;;15.70;99.90;;;;;;6095937;23;20383;-64
2021/08/10 06:47:26;;;;;;;5.23;4.00;;;15.60;99.90;;;;;;6095483;23;20174;-64
2021/08/10 06:49:52;;;;;;;5.13;3.80;;;15.80;99.90;;;;;;6095797;23;20178;-64
2021/08/10 06:52:17;;;;;;;3.47;3.17;;;15.90;99.90;;;;;;6095958;23;20586;-65
2021/08/10 06:54:43;;;;;;;3.03;2.83;;;15.90;99.90;;;;;;6095863;23;20582;-64
2021/08/10 06:57:09;;;;;;;3.20;3.00;;;16.00;99.90;;;;;;6095591;23;20253;-64
2021/08/10 06:59:36;;;;;;;5.33;3.63;;;16.00;99.90;;;;;;6095624;23;20170;-64
2021/08/10 07:02:03;;;;;;;4.50;3.03;;;16.00;99.90;;;;;;6096038;23;20462;-64
2021/08/10 07:04:28;;;;;;;4.70;3.43;;;16.10;99.90;;;;;;6095535;23;20367;-64
2021/08/10 07:06:54;;;;;;;3.40;3.10;;;16.20;99.90;;;;;;6095325;23;20689;-64
2021/08/10 07:09:21;;;;;;;3.17;2.87;;;16.30;99.90;;;;;;6096072;23;20174;-64
2021/08/10 07:11:47;;;;;;;4.30;3.50;;;16.50;99.90;;;;;;6095651;23;20190;-64
2021/08/10 07:14:13;;;;;;;5.00;3.17;;;16.50;99.90;;;;;;6095738;23;20794;-64
2021/08/10 07:16:39;;;;;;;2.40;2.20;;;16.50;99.90;;;;;;6095575;23;20242;-64
2021/08/10 07:19:05;;;;;;;3.40;2.93;;;16.60;99.90;;;;;;6095727;23;20177;-64
2021/08/10 07:21:31;;;;;;;3.30;2.77;;;16.60;99.90;;;;;;6095458;23;20497;-64
2021/08/10 07:23:56;;;;;;;4.10;3.70;;;16.60;99.90;;;;;;6095537;23;20461;-64
2021/08/10 07:26:22;;;;;;;3.33;3.03;;;16.70;99.90;;;;;;6095317;23;20150;-65
2021/08/10 07:28:48;;;;;;;2.87;2.67;;;16.70;99.90;;;;;;6095582;23;20166;-64
2021/08/10 07:31:14;;;;;;;3.67;3.30;;;16.70;99.90;;;;;;6095539;23;20467;-64
2021/08/10 07:33:40;;;;;;;3.80;3.50;;;16.80;99.90;;;;;;6095541;23;20150;-64
2021/08/10 07:36:05;;;;;;;4.00;2.83;;;16.90;99.90;;;;;;6095249;23;20767;-64
2021/08/10 07:38:31;;;;;;;4.20;3.80;;;17.00;99.90;;;;;;6095467;23;20166;-64
2021/08/10 07:40:57;;;;;;;3.77;3.47;;;17.10;99.90;;;;;;6095418;23;20176;-65
2021/08/10 07:43:22;;;;;;;4.20;3.70;;;17.20;99.90;;;;;;6095480;23;20147;-64
2021/08/10 07:45:48;;;;;;;4.47;2.97;;;17.30;99.90;;;;;;6095441;23;20174;-64
2021/08/10 07:48:15;;;;;;;3.17;2.87;;;17.40;99.90;;;;;;6095412;23;20167;-65
2021/08/10 07:50:41;;;;;;;6.37;3.77;;;17.50;99.90;;;;;;6095840;23;20154;-64
2021/08/10 07:53:06;;;;;;;3.27;3.07;;;17.60;99.90;;;;;;6095423;23;20865;-64
2021/08/10 07:55:32;;;;;;;3.07;2.87;;;17.70;99.90;;;;;;6095518;23;20206;-64
2021/08/10 07:57:58;;;;;;;3.60;3.30;;;18.00;99.90;;;;;;6094998;23;20151;-65
2021/08/10 08:00:23;;;;;;;3.70;3.40;;;18.10;99.90;;;;;;6095271;23;20203;-65
2021/08/10 08:02:49;;;;;;;2.80;2.60;;;18.10;99.90;;;;;;6095429;23;20146;-64
2021/08/10 08:05:15;;;;;;;3.70;3.40;;;18.20;99.90;;;;;;6095550;23;20222;-65
2021/08/10 08:07:40;;;;;;;5.00;3.00;;;18.20;99.90;;;;;;6095186;23;20242;-64
2021/08/10 08:10:06;;;;;;;4.60;3.03;;;18.10;99.90;;;;;;6095410;23;20205;-65
2021/08/10 08:12:32;;;;;;;3.40;3.03;;;18.00;99.90;;;;;;6095729;23;20218;-65
2021/08/10 08:14:57;;;;;;;3.33;2.93;;;18.00;99.90;;;;;;6095316;23;20402;-66
2021/08/10 08:17:23;;;;;;;3.53;3.33;;;17.90;99.90;;;;;;6096468;23;20551;-65
2021/08/10 08:19:49;;;;;;;2.67;2.43;;;17.80;99.90;;;;;;6097255;23;20177;-65
2021/08/10 08:22:14;;;;;;;2.70;2.53;;;17.60;99.90;;;;;;6097512;23;20143;-65
2021/08/10 08:24:40;;;;;;;4.63;3.57;;;17.60;99.90;;;;;;6097350;23;20153;-66
2021/08/10 08:27:05;;;;;;;4.07;3.70;;;17.60;99.90;;;;;;6097008;23;20170;-65
2021/08/10 08:29:31;;;;;;;3.77;3.37;;;17.70;99.90;;;;;;6097229;23;20221;-65
2021/08/10 08:31:56;;;;;;;3.63;3.33;;;17.80;99.90;;;;;;6097623;23;20464;-65
2021/08/10 08:34:22;;;;;;;3.87;3.53;;;18.00;99.90;;;;;;6097320;23;20143;-65
2021/08/10 08:36:47;;;;;;;3.37;2.40;;;18.10;99.90;;;;;;6096967;23;20439;-65
2021/08/10 08:39:13;;;;;;;2.60;2.50;;;18.20;99.90;;;;;;6097214;23;20665;-65
2021/08/10 08:41:39;;;;;;;4.10;3.60;;;18.20;99.90;;;;;;6097170;23;20486;-65
2021/08/10 08:44:05;;;;;;;4.50;3.57;;;18.30;99.90;;;;;;6097057;23;20147;-65
2021/08/10 08:46:31;;;;;;;3.73;3.40;;;18.40;99.90;;;;;;6097039;23;20370;-65
2021/08/10 08:48:58;;;;;;;3.33;3.00;;;18.30;99.90;;;;;;6097090;23;20700;-65
2021/08/10 08:51:25;;;;;;;5.03;3.33;;;18.30;99.90;;;;;;6097140;23;20209;-65
2021/08/10 08:53:53;;;;;;;4.73;4.20;;;18.10;99.90;;;;;;6097334;23;20374;-65
2021/08/10 08:56:20;;;;;;;7.80;5.33;;;18.00;99.90;;;;;;6096695;23;20374;-65
2021/08/10 08:58:46;;;;;;;3.70;3.37;;;17.90;99.90;;;;;;6096935;23;20441;-65
2021/08/10 09:01:13;;;;;;;3.87;3.47;;;17.80;99.90;;;;;;6097237;23;20463;-65
2021/08/10 09:03:38;;;;;;;3.73;3.43;;;17.70;99.90;;;;;;6096939;23;20438;-64
2021/08/10 09:06:04;;;;;;;5.97;3.53;;;17.60;99.90;;;;;;6096986;23;20378;-65
2021/08/10 09:08:29;;;;;;;4.63;3.97;;;17.70;99.90;;;;;;6096989;23;20207;-65
2021/08/10 09:10:57;;;;;;;4.50;4.00;;;17.90;99.90;;;;;;6096787;23;20173;-66
2021/08/10 09:13:23;;;;;;;4.47;4.17;;;18.30;99.90;;;;;;6096857;23;20218;-65
2021/08/10 09:15:49;;;;;;;4.97;3.83;;;18.60;99.90;;;;;;6096762;23;20401;-65
2021/08/10 09:18:17;;;;;;;4.47;4.07;;;18.90;99.90;;;;;;6096561;23;20877;-65
2021/08/10 09:21:04;;;;;;;5.57;5.10;;;19.30;99.90;;;;;;6096775;23;20813;-65
2021/08/10 09:23:45;;;;;;;3.30;3.10;;;19.50;99.90;;;;;;6100368;23;20358;-65
2021/08/10 09:26:14;;;;;;;3.90;3.27;;;19.40;99.90;;;;;;6101867;23;20375;-65
2021/08/10 09:28:41;;;;;;;3.67;3.43;;;19.40;99.90;;;;;;6101027;23;20434;-65
2021/08/10 09:31:33;;;;;;;3.40;3.10;;;19.40;99.90;;;;;;6101356;23;20382;-65
2021/08/10 09:34:18;;;;;;;3.67;3.40;;;19.60;99.90;;;;;;6100928;23;20371;-65
2021/08/10 09:36:44;;;;;;;3.60;3.30;;;19.70;99.90;;;;;;6100431;23;20351;-65
2021/08/10 09:39:10;;;;;;;3.97;3.57;;;19.60;99.90;;;;;;6100735;23;20398;-66
2021/08/10 09:41:36;;;;;;;2.90;2.70;;;19.70;99.90;;;;;;6099521;23;20414;-65
2021/08/10 09:44:13;;;;;;;3.47;3.10;;;20.10;99.90;;;;;;6099030;23;20155;-66
2021/08/10 09:46:48;;;;;;;2.07;1.97;;;20.40;99.90;;;;;;6097518;23;20354;-65
2021/08/10 09:49:14;;;;;;;3.53;3.30;;;20.20;99.90;;;;;;6098164;23;20390;-65
2021/08/10 09:51:42;;;;;;;3.13;2.93;;;20.10;99.90;;;;;;6098245;23;20374;-65
2021/08/10 09:54:12;;;;;;;2.83;2.63;;;20.20;99.90;;;;;;6097768;23;20363;-66
2021/08/10 09:57:12;;;;;;;3.17;2.33;;;20.60;99.90;;;;;;6098053;23;20351;-66
2021/08/10 09:59:42;;;;;;;3.33;2.87;;;21.20;99.90;;;;;;6098294;23;20394;-66
2021/08/10 10:02:22;;;;;;;3.20;3.00;;;21.50;99.90;;;;;;6099980;23;20367;-66
2021/08/10 10:04:55;;;;;;;3.00;2.77;;;21.60;99.90;;;;;;6100773;23;20381;-65
2021/08/10 10:07:22;;;;;;;2.90;2.70;;;21.60;99.90;;;;;;6101770;23;20457;-65
2021/08/10 10:09:48;;;;;;;4.07;3.77;;;21.90;99.90;;;;;;6103260;23;20560;-65
2021/08/10 10:12:15;;;;;;;3.00;2.80;;;22.20;99.90;;;;;;6103769;23;20450;-65
2021/08/10 10:14:43;;;;;;;3.73;3.53;;;22.40;99.90;;;;;;6103906;23;20399;-65
2021/08/10 10:17:09;;;;;;;3.40;3.20;;;22.50;99.90;;;;;;6104603;23;20756;-66
2021/08/10 10:19:36;;;;;;;3.50;3.30;;;22.60;99.50;;;;;;6104191;23;20453;-66
2021/08/10 10:22:04;;;;;;;2.73;2.53;;;22.70;98.70;;;;;;6104253;23;20852;-66
2021/08/10 10:24:35;;;;;;;3.20;3.00;;;22.60;98.50;;;;;;6103905;23;20394;-66
2021/08/10 10:27:00;;;;;;;4.33;3.80;;;22.90;99.20;;;;;;6103638;23;20434;-66
2021/08/10 10:29:27;;;;;;;4.93;3.73;;;23.50;99.90;;;;;;6105593;23;20391;-66
2021/08/10 10:31:53;;;;;;;3.80;3.40;;;23.90;99.90;;;;;;6101208;23;20162;-66
2021/08/10 10:34:20;;;;;;;4.90;3.40;;;23.90;96.50;;;;;;6101249;23;20378;-66
2021/08/10 10:36:47;;;;;;;3.10;2.90;;;23.60;97.50;;;;;;6101616;23;20778;-66
2021/08/10 10:39:25;;;;;;;3.70;3.40;;;23.80;96.90;;;;;;6097134;23;20450;-66
2021/08/10 10:41:54;;;;;;;3.60;3.40;;;23.70;96.40;;;;;;6099022;23;20489;-66
2021/08/10 10:44:46;;;;;;;3.87;3.10;;;23.80;96.90;;;;;;6101586;23;20374;-66
2021/08/10 10:47:24;;;;;;;3.57;3.27;;;24.10;96.40;;;;;;6099676;23;20359;-66
2021/08/10 10:49:56;;;;;;;5.63;3.23;;;24.50;96.90;;;;;;6098172;23;20478;-66
2021/08/10 10:52:26;;;;;;;3.73;3.30;;;24.70;95.60;;;;;;6097882;23;20434;-66
2021/08/10 10:54:52;;;;;;;3.60;3.30;;;24.90;95.00;;;;;;6096995;23;20375;-66
2021/08/10 10:57:30;;;;;;;4.50;3.93;;;24.90;96.40;;;;;;6096589;23;20371;-66
2021/08/10 11:00:20;;;;;;;4.27;3.87;;;25.10;95.30;;;;;;6097015;23;20418;-66
2021/08/10 11:03:10;;;;;;;3.40;3.10;;;25.30;94.20;;;;;;6097440;23;20494;-67
2021/08/10 11:05:36;;;;;;;4.30;3.60;;;25.60;94.20;;;;;;6076925;23;20382;-67
2021/08/10 11:08:03;;;;;;;3.53;3.23;;;25.80;92.50;;;;;;6097423;23;20426;-66
2021/08/10 11:10:46;;;;;;;4.03;3.53;;;25.90;92.00;;;;;;6098365;23;20241;-67
2021/08/10 11:13:21;;;;;;;3.00;2.80;;;25.90;92.50;;;;;;6099008;23;20470;-66
2021/08/10 11:15:46;;;;;;;4.60;3.80;;;26.20;91.80;;;;;;6099344;23;20853;-67
2021/08/10 11:18:12;;;;;;;3.10;2.80;;;26.30;91.20;;;;;;6100422;23;20387;-67
2021/08/10 11:20:46;;;;;;;3.00;2.80;;;26.30;91.10;;;;;;6101179;23;20167;-67
2021/08/10 11:23:21;;;;;;;3.90;3.00;;;26.40;89.30;;;;;;6101965;23;20143;-66
2021/08/10 11:26:09;;;;;;;3.93;3.60;;;26.20;90.70;;;;;;6101945;23;20374;-67
2021/08/10 11:28:37;;;;;;;3.10;2.90;;;26.60;91.80;;;;;;6081136;23;20789;-67
2021/08/10 11:31:08;;;;;;;3.40;3.10;;;26.50;89.60;;;;;;6104625;23;20441;-67
2021/08/10 11:33:35;;;;;;;3.20;3.00;;;26.40;92.60;;;;;;6103918;23;20366;-67
2021/08/10 11:36:09;;;;;;;3.97;3.67;;;26.60;92.00;;;;;;6104876;23;20366;-67
2021/08/10 11:38:35;;;;;;;5.20;3.10;;;27.10;91.10;;;;;;6106701;23;20392;-67
2021/08/10 11:41:04;;;;;;;4.03;3.50;;;27.40;91.80;;;;;;6105037;23;20758;-67
2021/08/10 11:43:38;;;;;;;3.90;3.60;;;27.70;91.50;;;;;;6105304;23;20371;-67
2021/08/10 11:46:05;;;;;;;3.90;3.60;;;28.10;90.00;;;;;;6102918;23;20717;-67
2021/08/10 11:48:45;;;;;;;2.87;2.77;;;28.40;89.20;;;;;;6102394;23;20493;-67
2021/08/10 11:51:34;;;;;;;3.07;2.80;;;28.80;91.70;;;;;;6101447;23;20378;-67
2021/08/10 11:54:12;;;;;;;5.03;3.50;;;28.60;84.50;;;;;;6100169;23;20355;-67
2021/08/10 11:56:40;;;;;;;3.50;3.20;;;28.80;86.40;;;;;;6099441;23;20446;-68
2021/08/10 11:59:14;;;;;;;5.47;3.47;;;28.80;84.30;;;;;;6099048;23;20481;-67
2021/08/10 12:01:40;;;;;;;5.47;4.23;;;28.30;82.50;;;;;;6099535;23;20872;-68
2021/08/10 12:04:17;;;;;;;3.83;3.53;;;27.40;79.90;;;;;;6100086;23;20394;-68
2021/08/10 12:06:48;;;;;;;3.83;3.53;;;27.80;87.20;;;;;;6098888;23;20131;-68
2021/08/10 12:09:17;;;;;;;4.30;3.90;;;28.30;90.90;;;;;;6099058;23;20394;-67
2021/08/10 12:11:44;;;;;;;4.73;4.33;;;28.00;83.60;;;;;;6098542;23;20390;-67
2021/08/10 12:14:19;;;;;;;4.30;4.00;;;28.40;89.90;;;;;;6098351;23;20406;-68
2021/08/10 12:16:58;;;;;;;4.50;4.10;;;28.60;84.90;;;;;;6098310;23;20351;-67
2021/08/10 12:19:42;;;;;;;3.60;3.20;;;29.00;87.80;;;;;;6098650;23;20395;-68
2021/08/10 12:22:15;;;;;;;3.43;3.13;;;29.60;87.00;;;;;;6099081;23;20358;-68
2021/08/10 12:24:41;;;;;;;3.20;3.00;;;29.30;80.50;;;;;;6099814;23;20410;-68
2021/08/10 12:27:09;;;;;;;4.27;3.97;;;29.80;86.20;;;;;;6099315;23;20367;-68
2021/08/10 12:29:40;;;;;;;5.97;3.60;;;30.00;89.10;;;;;;6099954;23;20729;-68
2021/08/10 12:32:08;;;;;;;4.87;4.47;;;30.50;85.20;;;;;;6103153;23;20869;-68
2021/08/10 12:34:36;;;;;;;7.50;4.17;;;31.10;86.40;;;;;;6103471;23;20373;-68
2021/08/10 12:37:02;;;;;;;5.10;3.80;;;31.50;82.30;;;;;;6102502;23;20363;-68
2021/08/10 12:39:28;;;;;;;4.03;3.67;;;31.30;85.10;;;;;;6100618;23;20701;-68
2021/08/10 12:41:59;;;;;;;4.70;4.20;;;30.80;78.40;;;;;;6102931;23;20440;-68
2021/08/10 12:44:26;;;;;;;4.27;3.97;;;30.50;75.30;;;;;;6101927;23;20355;-68
2021/08/10 12:46:57;;;;;;;4.97;4.00;;;30.00;78.80;;;;;;6100254;23;20375;-68
2021/08/10 12:49:41;;;;;;;4.90;4.50;;;29.70;81.50;;;;;;6103858;23;20394;-68
2021/08/10 12:52:09;;;;;;;4.47;4.03;;;29.60;80.90;;;;;;6102132;23;20531;-69
2021/08/10 12:54:55;;;;;;;4.43;4.13;;;29.30;83.40;;;;;;6100372;23;20367;-68